sensor_id;sensor_type;location;lat;lon;timestamp;temperature;humidity
2463;DHT22;1243;54.298;10.172;2022-09-25T00:01:35;13.70;99.90
2463;DHT22;1243;54.298;10.172;2022-09-25T00:04:01;13.60;99.90
2463;DHT22;1243;54.298;10.172;2022-09-25T00:06:28;13.70;99.90
2463;DHT22;1243;54.298;10.172;2022-09-25T00:08:55;13.70;99.90
2463;DHT22;1243;54.298;10.172;2022-09-25T00:11:27;13.70;99.90
2463;DHT22;1243;54.298;10.172;2022-09-25T00:13:54;13.70;99.90
2463;DHT22;1243;54.298;10.172;2022-09-25T00:16:23;13.60;99.90
2463;DHT22;1243;54.298;10.172;2022-09-25T00:18:49;13.60;99.90
2463;DHT22;1243;54.298;10.172;2022-09-25T00:21:34;13.60;99.90
2463;DHT22;1243;54.298;10.172;2022-09-25T00:24:03;13.50;99.90
2463;DHT22;1243;54.298;10.172;2022-09-25T00:26:31;13.40;99.90
2463;DHT22;1243;54.298;10.172;2022-09-25T00:28:58;13.40;99.90
2463;DHT22;1243;54.298;10.172;2022-09-25T00:31:26;13.50;99.90
2463;DHT22;1243;54.298;10.172;2022-09-25T00:33:53;13.50;99.90
2463;DHT22;1243;54.298;10.172;2022-09-25T00:36:20;13.50;99.90
2463;DHT22;1243;54.298;10.172;2022-09-25T00:38:46;13.50;99.90
2463;DHT22;1243;54.298;10.172;2022-09-25T00:41:15;13.50;99.90
2463;DHT22;1243;54.298;10.172;2022-09-25T00:43:47;13.40;99.90
2463;DHT22;1243;54.298;10.172;2022-09-25T00:46:35;13.30;99.90
2463;DHT22;1243;54.298;10.172;2022-09-25T00:49:16;13.30;99.90
2463;DHT22;1243;54.298;10.172;2022-09-25T00:51:51;13.30;99.90
2463;DHT22;1243;54.298;10.172;2022-09-25T00:54:26;13.40;99.90
2463;DHT22;1243;54.298;10.172;2022-09-25T00:56:56;13.40;99.90
2463;DHT22;1243;54.298;10.172;2022-09-25T00:59:30;13.40;99.90
2463;DHT22;1243;54.298;10.172;2022-09-25T01:01:57;13.30;99.90
2463;DHT22;1243;54.298;10.172;2022-09-25T01:04:25;13.30;99.90
2463;DHT22;1243;54.298;10.172;2022-09-25T01:06:51;13.30;99.90
2463;DHT22;1243;54.298;10.172;2022-09-25T01:09:17;13.30;99.90
2463;DHT22;1243;54.298;10.172;2022-09-25T01:11:43;13.30;99.90
2463;DHT22;1243;54.298;10.172;2022-09-25T01:14:10;13.30;99.90
2463;DHT22;1243;54.298;10.172;2022-09-25T01:17:04;13.30;99.90
2463;DHT22;1243;54.298;10.172;2022-09-25T01:22:49;13.40;99.90
2463;DHT22;1243;54.298;10.172;2022-09-25T01:31:23;13.40;99.90
2463;DHT22;1243;54.298;10.172;2022-09-25T01:33:54;13.40;99.90
2463;DHT22;1243;54.298;10.172;2022-09-25T01:36:35;13.40;99.90
2463;DHT22;1243;54.298;10.172;2022-09-25T01:42:09;13.40;1.00
2463;DHT22;1243;54.298;10.172;2022-09-25T01:47:36;13.40;1.00
2463;DHT22;1243;54.298;10.172;2022-09-25T01:50:19;13.30;99.90
2463;DHT22;1243;54.298;10.172;2022-09-25T01:52:51;13.20;99.90
2463;DHT22;1243;54.298;10.172;2022-09-25T01:55:28;13.10;99.90
2463;DHT22;1243;54.298;10.172;2022-09-25T01:58:07;13.10;1.00
2463;DHT22;1243;54.298;10.172;2022-09-25T02:00:38;13.10;1.00
2463;DHT22;1243;54.298;10.172;2022-09-25T02:03:13;13.10;1.00
2463;DHT22;1243;54.298;10.172;2022-09-25T02:05:47;13.20;1.00
2463;DHT22;1243;54.298;10.172;2022-09-25T02:08:27;13.20;1.00
2463;DHT22;1243;54.298;10.172;2022-09-25T02:10:58;13.30;1.00
2463;DHT22;1243;54.298;10.172;2022-09-25T02:13:31;13.30;1.00
2463;DHT22;1243;54.298;10.172;2022-09-25T02:16:06;13.30;1.00
2463;DHT22;1243;54.298;10.172;2022-09-25T02:18:34;13.30;1.00
2463;DHT22;1243;54.298;10.172;2022-09-25T02:21:31;13.20;1.00
2463;DHT22;1243;54.298;10.172;2022-09-25T02:26:38;13.20;1.00
2463;DHT22;1243;54.298;10.172;2022-09-25T02:29:04;13.20;1.00
2463;DHT22;1243;54.298;10.172;2022-09-25T02:31:43;13.20;1.00
2463;DHT22;1243;54.298;10.172;2022-09-25T02:34:12;13.20;1.00
2463;DHT22;1243;54.298;10.172;2022-09-25T02:36:37;13.20;1.00
2463;DHT22;1243;54.298;10.172;2022-09-25T02:39:04;13.20;1.00
2463;DHT22;1243;54.298;10.172;2022-09-25T02:46:59;13.20;1.00
2463;DHT22;1243;54.298;10.172;2022-09-25T02:49:37;13.20;1.00
2463;DHT22;1243;54.298;10.172;2022-09-25T02:52:32;13.20;1.00
2463;DHT22;1243;54.298;10.172;2022-09-25T02:57:37;13.20;1.00
2463;DHT22;1243;54.298;10.172;2022-09-25T03:00:07;13.20;1.00
2463;DHT22;1243;54.298;10.172;2022-09-25T03:02:35;13.20;1.00
2463;DHT22;1243;54.298;10.172;2022-09-25T03:05:03;13.20;1.00
2463;DHT22;1243;54.298;10.172;2022-09-25T03:07:30;13.20;1.00
2463;DHT22;1243;54.298;10.172;2022-09-25T03:10:17;13.30;1.00
2463;DHT22;1243;54.298;10.172;2022-09-25T03:12:43;13.30;1.00
2463;DHT22;1243;54.298;10.172;2022-09-25T03:15:09;13.30;1.00
2463;DHT22;1243;54.298;10.172;2022-09-25T03:17:36;13.30;1.00
2463;DHT22;1243;54.298;10.172;2022-09-25T03:20:05;13.20;1.00
2463;DHT22;1243;54.298;10.172;2022-09-25T03:22:31;13.20;1.00
2463;DHT22;1243;54.298;10.172;2022-09-25T03:24:57;13.20;1.00
2463;DHT22;1243;54.298;10.172;2022-09-25T03:27:22;13.30;1.00
2463;DHT22;1243;54.298;10.172;2022-09-25T03:29:53;13.30;1.00
2463;DHT22;1243;54.298;10.172;2022-09-25T03:32:20;13.30;1.00
2463;DHT22;1243;54.298;10.172;2022-09-25T03:34:46;13.30;1.00
2463;DHT22;1243;54.298;10.172;2022-09-25T03:37:11;13.30;1.00
2463;DHT22;1243;54.298;10.172;2022-09-25T03:39:37;13.30;1.00
2463;DHT22;1243;54.298;10.172;2022-09-25T03:42:03;13.30;1.00
2463;DHT22;1243;54.298;10.172;2022-09-25T03:44:29;13.30;1.00
2463;DHT22;1243;54.298;10.172;2022-09-25T03:46:54;13.30;1.00
2463;DHT22;1243;54.298;10.172;2022-09-25T03:49:20;13.30;1.00
2463;DHT22;1243;54.298;10.172;2022-09-25T03:51:47;13.30;1.00
2463;DHT22;1243;54.298;10.172;2022-09-25T03:54:12;13.30;1.00
2463;DHT22;1243;54.298;10.172;2022-09-25T03:56:38;13.30;1.00
2463;DHT22;1243;54.298;10.172;2022-09-25T03:59:04;13.30;1.00
2463;DHT22;1243;54.298;10.172;2022-09-25T04:01:30;13.30;1.00
2463;DHT22;1243;54.298;10.172;2022-09-25T04:03:55;13.30;1.00
2463;DHT22;1243;54.298;10.172;2022-09-25T04:06:24;13.30;1.00
2463;DHT22;1243;54.298;10.172;2022-09-25T04:08:51;13.30;1.00
2463;DHT22;1243;54.298;10.172;2022-09-25T04:11:18;13.30;1.00
2463;DHT22;1243;54.298;10.172;2022-09-25T04:13:45;13.30;1.00
2463;DHT22;1243;54.298;10.172;2022-09-25T04:16:11;13.30;1.00
2463;DHT22;1243;54.298;10.172;2022-09-25T04:18:38;13.30;1.00
2463;DHT22;1243;54.298;10.172;2022-09-25T04:21:08;13.30;1.00
2463;DHT22;1243;54.298;10.172;2022-09-25T04:23:36;13.30;1.00
2463;DHT22;1243;54.298;10.172;2022-09-25T04:26:02;13.30;1.00
2463;DHT22;1243;54.298;10.172;2022-09-25T04:28:28;13.30;1.00
2463;DHT22;1243;54.298;10.172;2022-09-25T04:30:55;13.30;1.00
2463;DHT22;1243;54.298;10.172;2022-09-25T04:33:21;13.30;1.00
2463;DHT22;1243;54.298;10.172;2022-09-25T04:36:18;13.30;1.00
2463;DHT22;1243;54.298;10.172;2022-09-25T04:38:44;13.30;1.00
2463;DHT22;1243;54.298;10.172;2022-09-25T04:41:10;13.40;1.00
2463;DHT22;1243;54.298;10.172;2022-09-25T04:43:36;13.40;1.00
2463;DHT22;1243;54.298;10.172;2022-09-25T04:46:06;13.30;1.00
2463;DHT22;1243;54.298;10.172;2022-09-25T04:48:33;13.40;1.00
2463;DHT22;1243;54.298;10.172;2022-09-25T04:50:58;13.40;1.00
2463;DHT22;1243;54.298;10.172;2022-09-25T04:53:26;13.40;1.00
2463;DHT22;1243;54.298;10.172;2022-09-25T04:55:53;13.40;1.00
2463;DHT22;1243;54.298;10.172;2022-09-25T04:58:20;13.40;1.00
2463;DHT22;1243;54.298;10.172;2022-09-25T05:00:46;13.40;1.00
2463;DHT22;1243;54.298;10.172;2022-09-25T05:03:11;13.40;1.00
2463;DHT22;1243;54.298;10.172;2022-09-25T05:05:37;13.40;1.00
2463;DHT22;1243;54.298;10.172;2022-09-25T05:08:03;13.40;1.00
2463;DHT22;1243;54.298;10.172;2022-09-25T05:10:32;13.40;1.00
2463;DHT22;1243;54.298;10.172;2022-09-25T05:13:04;13.40;1.00
2463;DHT22;1243;54.298;10.172;2022-09-25T05:15:32;13.40;1.00
2463;DHT22;1243;54.298;10.172;2022-09-25T05:18:16;13.40;1.00
2463;DHT22;1243;54.298;10.172;2022-09-25T05:20:42;13.40;1.00
2463;DHT22;1243;54.298;10.172;2022-09-25T05:23:07;13.30;1.00
2463;DHT22;1243;54.298;10.172;2022-09-25T05:25:34;13.30;1.00
2463;DHT22;1243;54.298;10.172;2022-09-25T05:28:00;13.30;1.00
2463;DHT22;1243;54.298;10.172;2022-09-25T05:30:28;13.30;1.00
2463;DHT22;1243;54.298;10.172;2022-09-25T05:32:55;13.30;1.00
2463;DHT22;1243;54.298;10.172;2022-09-25T05:35:24;13.20;1.00
2463;DHT22;1243;54.298;10.172;2022-09-25T05:37:50;13.20;1.00
2463;DHT22;1243;54.298;10.172;2022-09-25T05:40:17;13.30;1.00
2463;DHT22;1243;54.298;10.172;2022-09-25T05:42:45;13.30;1.00
2463;DHT22;1243;54.298;10.172;2022-09-25T05:45:13;13.30;1.00
2463;DHT22;1243;54.298;10.172;2022-09-25T05:47:40;13.30;1.00
2463;DHT22;1243;54.298;10.172;2022-09-25T05:50:07;13.30;1.00
2463;DHT22;1243;54.298;10.172;2022-09-25T05:52:34;13.40;1.00
2463;DHT22;1243;54.298;10.172;2022-09-25T05:54:59;13.40;1.00
2463;DHT22;1243;54.298;10.172;2022-09-25T05:57:30;13.40;1.00
2463;DHT22;1243;54.298;10.172;2022-09-25T05:59:55;13.40;1.00
2463;DHT22;1243;54.298;10.172;2022-09-25T06:02:21;13.40;1.00
2463;DHT22;1243;54.298;10.172;2022-09-25T06:04:47;13.40;1.00
2463;DHT22;1243;54.298;10.172;2022-09-25T06:07:13;13.40;1.00
2463;DHT22;1243;54.298;10.172;2022-09-25T06:09:38;13.40;1.00
2463;DHT22;1243;54.298;10.172;2022-09-25T06:12:04;13.40;1.00
2463;DHT22;1243;54.298;10.172;2022-09-25T06:14:31;13.40;1.00
2463;DHT22;1243;54.298;10.172;2022-09-25T06:16:57;13.50;1.00
2463;DHT22;1243;54.298;10.172;2022-09-25T06:19:23;13.50;1.00
2463;DHT22;1243;54.298;10.172;2022-09-25T06:21:49;13.50;1.00
2463;DHT22;1243;54.298;10.172;2022-09-25T06:24:15;13.50;1.00
2463;DHT22;1243;54.298;10.172;2022-09-25T06:26:40;13.60;1.00
2463;DHT22;1243;54.298;10.172;2022-09-25T06:29:06;13.60;1.00
2463;DHT22;1243;54.298;10.172;2022-09-25T06:31:33;13.70;1.00
2463;DHT22;1243;54.298;10.172;2022-09-25T06:33:59;13.80;1.00
2463;DHT22;1243;54.298;10.172;2022-09-25T06:36:25;13.80;1.00
2463;DHT22;1243;54.298;10.172;2022-09-25T06:38:54;13.90;1.00
2463;DHT22;1243;54.298;10.172;2022-09-25T06:41:21;13.90;1.00
2463;DHT22;1243;54.298;10.172;2022-09-25T06:43:52;13.90;1.00
2463;DHT22;1243;54.298;10.172;2022-09-25T06:46:19;14.00;1.00
2463;DHT22;1243;54.298;10.172;2022-09-25T06:48:52;14.00;1.00
2463;DHT22;1243;54.298;10.172;2022-09-25T06:51:22;14.00;1.00
2463;DHT22;1243;54.298;10.172;2022-09-25T06:53:52;14.10;1.00
2463;DHT22;1243;54.298;10.172;2022-09-25T06:56:18;14.10;1.00
2463;DHT22;1243;54.298;10.172;2022-09-25T06:58:44;14.10;1.00
2463;DHT22;1243;54.298;10.172;2022-09-25T07:01:09;14.10;1.00
2463;DHT22;1243;54.298;10.172;2022-09-25T07:03:36;14.10;1.00
2463;DHT22;1243;54.298;10.172;2022-09-25T07:06:20;14.10;1.00
2463;DHT22;1243;54.298;10.172;2022-09-25T07:08:47;14.10;1.00
2463;DHT22;1243;54.298;10.172;2022-09-25T07:11:18;14.10;1.00
2463;DHT22;1243;54.298;10.172;2022-09-25T07:13:44;14.10;1.00
2463;DHT22;1243;54.298;10.172;2022-09-25T07:16:13;14.10;1.00
2463;DHT22;1243;54.298;10.172;2022-09-25T07:18:38;14.10;1.00
2463;DHT22;1243;54.298;10.172;2022-09-25T07:21:10;14.10;1.00
2463;DHT22;1243;54.298;10.172;2022-09-25T07:23:36;14.10;1.00
2463;DHT22;1243;54.298;10.172;2022-09-25T07:26:11;14.20;1.00
2463;DHT22;1243;54.298;10.172;2022-09-25T07:28:39;14.30;1.00
2463;DHT22;1243;54.298;10.172;2022-09-25T07:31:12;14.40;1.00
2463;DHT22;1243;54.298;10.172;2022-09-25T07:33:38;14.40;1.00
2463;DHT22;1243;54.298;10.172;2022-09-25T07:36:04;14.50;1.00
2463;DHT22;1243;54.298;10.172;2022-09-25T07:38:31;14.50;1.00
2463;DHT22;1243;54.298;10.172;2022-09-25T07:40:56;14.50;1.00
2463;DHT22;1243;54.298;10.172;2022-09-25T07:43:22;14.40;1.00
2463;DHT22;1243;54.298;10.172;2022-09-25T07:45:49;14.40;1.00
2463;DHT22;1243;54.298;10.172;2022-09-25T07:48:18;14.30;1.00
2463;DHT22;1243;54.298;10.172;2022-09-25T07:50:46;14.30;1.00
2463;DHT22;1243;54.298;10.172;2022-09-25T07:53:13;14.20;1.00
2463;DHT22;1243;54.298;10.172;2022-09-25T07:55:39;14.20;1.00
2463;DHT22;1243;54.298;10.172;2022-09-25T07:58:05;14.20;1.00
2463;DHT22;1243;54.298;10.172;2022-09-25T08:00:31;14.10;1.00
2463;DHT22;1243;54.298;10.172;2022-09-25T08:02:57;14.00;1.00
2463;DHT22;1243;54.298;10.172;2022-09-25T08:05:24;14.00;1.00
2463;DHT22;1243;54.298;10.172;2022-09-25T08:07:51;14.00;1.00
2463;DHT22;1243;54.298;10.172;2022-09-25T08:10:17;13.90;1.00
2463;DHT22;1243;54.298;10.172;2022-09-25T08:12:43;13.90;1.00
2463;DHT22;1243;54.298;10.172;2022-09-25T08:15:09;13.90;1.00
2463;DHT22;1243;54.298;10.172;2022-09-25T08:17:35;14.00;1.00
2463;DHT22;1243;54.298;10.172;2022-09-25T08:20:01;13.90;1.00
2463;DHT22;1243;54.298;10.172;2022-09-25T08:22:27;13.90;1.00
2463;DHT22;1243;54.298;10.172;2022-09-25T08:24:53;13.90;1.00
2463;DHT22;1243;54.298;10.172;2022-09-25T08:27:19;13.90;1.00
2463;DHT22;1243;54.298;10.172;2022-09-25T08:29:44;13.90;1.00
2463;DHT22;1243;54.298;10.172;2022-09-25T08:32:10;14.00;1.00
2463;DHT22;1243;54.298;10.172;2022-09-25T08:34:36;14.00;1.00
2463;DHT22;1243;54.298;10.172;2022-09-25T08:37:02;14.10;1.00
2463;DHT22;1243;54.298;10.172;2022-09-25T08:39:28;14.20;1.00
2463;DHT22;1243;54.298;10.172;2022-09-25T08:41:54;14.20;1.00
2463;DHT22;1243;54.298;10.172;2022-09-25T08:44:41;14.20;1.00
2463;DHT22;1243;54.298;10.172;2022-09-25T08:47:20;14.30;1.00
2463;DHT22;1243;54.298;10.172;2022-09-25T08:50:12;14.30;1.00
2463;DHT22;1243;54.298;10.172;2022-09-25T08:52:42;14.20;1.00
2463;DHT22;1243;54.298;10.172;2022-09-25T08:55:35;14.30;1.00
2463;DHT22;1243;54.298;10.172;2022-09-25T08:58:26;14.30;1.00
2463;DHT22;1243;54.298;10.172;2022-09-25T09:00:57;14.30;1.00
2463;DHT22;1243;54.298;10.172;2022-09-25T09:03:28;14.20;1.00
2463;DHT22;1243;54.298;10.172;2022-09-25T09:06:04;14.20;1.00
2463;DHT22;1243;54.298;10.172;2022-09-25T09:08:34;14.30;1.00
2463;DHT22;1243;54.298;10.172;2022-09-25T09:11:11;14.30;1.00
2463;DHT22;1243;54.298;10.172;2022-09-25T09:18:48;14.40;1.00
2463;DHT22;1243;54.298;10.172;2022-09-25T09:21:34;14.40;1.00
2463;DHT22;1243;54.298;10.172;2022-09-25T09:24:16;14.40;1.00
2463;DHT22;1243;54.298;10.172;2022-09-25T09:32:56;14.40;99.90
2463;DHT22;1243;54.298;10.172;2022-09-25T09:35:55;14.40;99.90
2463;DHT22;1243;54.298;10.172;2022-09-25T09:46:14;14.50;99.90
2463;DHT22;1243;54.298;10.172;2022-09-25T09:52:27;14.50;99.90
2463;DHT22;1243;54.298;10.172;2022-09-25T09:54:50;14.50;99.90
2463;DHT22;1243;54.298;10.172;2022-09-25T09:57:24;14.50;99.90
2463;DHT22;1243;54.298;10.172;2022-09-25T10:00:06;14.50;99.90
2463;DHT22;1243;54.298;10.172;2022-09-25T10:02:42;14.50;99.90
2463;DHT22;1243;54.298;10.172;2022-09-25T10:07:59;14.50;99.90
2463;DHT22;1243;54.298;10.172;2022-09-25T10:10:34;14.50;99.90
2463;DHT22;1243;54.298;10.172;2022-09-25T10:13:00;14.50;99.90
2463;DHT22;1243;54.298;10.172;2022-09-25T10:15:38;14.60;99.90
2463;DHT22;1243;54.298;10.172;2022-09-25T10:18:05;14.60;99.90
2463;DHT22;1243;54.298;10.172;2022-09-25T10:21:02;14.60;99.90
2463;DHT22;1243;54.298;10.172;2022-09-25T10:23:37;14.60;99.90
2463;DHT22;1243;54.298;10.172;2022-09-25T10:26:28;14.60;99.90
2463;DHT22;1243;54.298;10.172;2022-09-25T10:29:01;14.60;99.90
2463;DHT22;1243;54.298;10.172;2022-09-25T10:31:34;14.60;99.90
2463;DHT22;1243;54.298;10.172;2022-09-25T10:36:44;14.60;99.90
2463;DHT22;1243;54.298;10.172;2022-09-25T10:39:33;14.60;99.90
2463;DHT22;1243;54.298;10.172;2022-09-25T10:42:00;14.60;99.90
2463;DHT22;1243;54.298;10.172;2022-09-25T10:44:34;14.70;99.90
2463;DHT22;1243;54.298;10.172;2022-09-25T10:50:15;14.70;99.90
2463;DHT22;1243;54.298;10.172;2022-09-25T10:52:45;14.60;99.90
2463;DHT22;1243;54.298;10.172;2022-09-25T10:55:35;14.60;99.90
2463;DHT22;1243;54.298;10.172;2022-09-25T11:03:19;14.50;99.90
2463;DHT22;1243;54.298;10.172;2022-09-25T11:05:54;14.60;99.90
2463;DHT22;1243;54.298;10.172;2022-09-25T11:08:23;14.60;99.90
2463;DHT22;1243;54.298;10.172;2022-09-25T11:10:54;14.70;99.90
2463;DHT22;1243;54.298;10.172;2022-09-25T11:13:25;14.70;99.90
2463;DHT22;1243;54.298;10.172;2022-09-25T11:15:58;14.80;99.90
2463;DHT22;1243;54.298;10.172;2022-09-25T11:18:39;14.90;99.90
2463;DHT22;1243;54.298;10.172;2022-09-25T11:21:16;14.90;99.90
2463;DHT22;1243;54.298;10.172;2022-09-25T11:26:46;15.00;99.90
2463;DHT22;1243;54.298;10.172;2022-09-25T11:29:24;15.10;99.90
2463;DHT22;1243;54.298;10.172;2022-09-25T11:32:11;15.10;99.90
2463;DHT22;1243;54.298;10.172;2022-09-25T11:37:52;15.00;99.90
2463;DHT22;1243;54.298;10.172;2022-09-25T11:40:59;15.00;99.90
2463;DHT22;1243;54.298;10.172;2022-09-25T11:46:59;14.90;99.90
2463;DHT22;1243;54.298;10.172;2022-09-25T11:49:36;14.80;99.90
2463;DHT22;1243;54.298;10.172;2022-09-25T11:58:00;14.90;99.90
2463;DHT22;1243;54.298;10.172;2022-09-25T12:00:46;14.90;99.90
2463;DHT22;1243;54.298;10.172;2022-09-25T12:11:38;15.10;99.90
2463;DHT22;1243;54.298;10.172;2022-09-25T12:20:10;15.00;99.90
2463;DHT22;1243;54.298;10.172;2022-09-25T12:25:39;15.10;99.90
2463;DHT22;1243;54.298;10.172;2022-09-25T12:28:43;15.10;99.90
2463;DHT22;1243;54.298;10.172;2022-09-25T12:36:55;15.30;99.90
2463;DHT22;1243;54.298;10.172;2022-09-25T12:39:24;15.30;99.90
2463;DHT22;1243;54.298;10.172;2022-09-25T12:42:02;15.30;99.90
2463;DHT22;1243;54.298;10.172;2022-09-25T12:47:22;15.30;99.90
2463;DHT22;1243;54.298;10.172;2022-09-25T12:50:08;15.30;99.90
2463;DHT22;1243;54.298;10.172;2022-09-25T12:52:56;15.20;99.90
2463;DHT22;1243;54.298;10.172;2022-09-25T12:56:23;15.20;99.90
2463;DHT22;1243;54.298;10.172;2022-09-25T13:04:12;15.30;99.90
2463;DHT22;1243;54.298;10.172;2022-09-25T13:06:51;15.50;99.90
2463;DHT22;1243;54.298;10.172;2022-09-25T13:12:07;15.50;99.90
2463;DHT22;1243;54.298;10.172;2022-09-25T13:14:43;15.40;99.90
2463;DHT22;1243;54.298;10.172;2022-09-25T13:17:12;15.30;99.90
2463;DHT22;1243;54.298;10.172;2022-09-25T13:19:40;15.40;99.90
2463;DHT22;1243;54.298;10.172;2022-09-25T13:22:06;15.40;99.90
2463;DHT22;1243;54.298;10.172;2022-09-25T13:25:04;15.40;99.90
2463;DHT22;1243;54.298;10.172;2022-09-25T13:27:43;15.30;99.90
2463;DHT22;1243;54.298;10.172;2022-09-25T13:30:50;15.20;99.90
2463;DHT22;1243;54.298;10.172;2022-09-25T13:33:21;15.20;99.90
2463;DHT22;1243;54.298;10.172;2022-09-25T13:35:47;15.00;99.90
2463;DHT22;1243;54.298;10.172;2022-09-25T13:38:17;15.00;99.90
2463;DHT22;1243;54.298;10.172;2022-09-25T13:41:09;15.00;99.90
2463;DHT22;1243;54.298;10.172;2022-09-25T13:43:35;15.00;99.90
2463;DHT22;1243;54.298;10.172;2022-09-25T13:48:48;15.00;99.90
2463;DHT22;1243;54.298;10.172;2022-09-25T13:54:43;15.00;99.90
2463;DHT22;1243;54.298;10.172;2022-09-25T13:56:46;15.00;99.90
2463;DHT22;1243;54.298;10.172;2022-09-25T14:01:51;15.00;99.90
2463;DHT22;1243;54.298;10.172;2022-09-25T14:04:35;15.10;99.90
2463;DHT22;1243;54.298;10.172;2022-09-25T14:09:31;15.10;99.90
2463;DHT22;1243;54.298;10.172;2022-09-25T14:14:45;15.10;99.90
2463;DHT22;1243;54.298;10.172;2022-09-25T14:17:19;15.20;99.90
2463;DHT22;1243;54.298;10.172;2022-09-25T14:19:50;15.20;99.90
2463;DHT22;1243;54.298;10.172;2022-09-25T14:22:31;15.30;99.90
2463;DHT22;1243;54.298;10.172;2022-09-25T14:24:58;15.30;99.90
2463;DHT22;1243;54.298;10.172;2022-09-25T14:27:25;15.50;99.90
2463;DHT22;1243;54.298;10.172;2022-09-25T14:30:03;15.50;99.90
2463;DHT22;1243;54.298;10.172;2022-09-25T14:41:26;15.50;99.90
2463;DHT22;1243;54.298;10.172;2022-09-25T14:46:52;15.40;99.90
2463;DHT22;1243;54.298;10.172;2022-09-25T14:49:37;15.30;99.90
2463;DHT22;1243;54.298;10.172;2022-09-25T14:52:07;15.20;99.90
2463;DHT22;1243;54.298;10.172;2022-09-25T14:54:36;15.20;99.90
2463;DHT22;1243;54.298;10.172;2022-09-25T14:57:05;15.20;99.90
2463;DHT22;1243;54.298;10.172;2022-09-25T14:59:50;15.10;99.90
2463;DHT22;1243;54.298;10.172;2022-09-25T15:02:22;15.10;99.90
2463;DHT22;1243;54.298;10.172;2022-09-25T15:04:48;15.10;99.90
2463;DHT22;1243;54.298;10.172;2022-09-25T15:07:22;15.10;99.90
2463;DHT22;1243;54.298;10.172;2022-09-25T15:09:49;15.10;99.90
2463;DHT22;1243;54.298;10.172;2022-09-25T15:12:33;15.10;99.90
2463;DHT22;1243;54.298;10.172;2022-09-25T15:15:11;15.10;99.90
2463;DHT22;1243;54.298;10.172;2022-09-25T15:17:47;15.00;99.90
2463;DHT22;1243;54.298;10.172;2022-09-25T15:20:19;14.90;99.90
2463;DHT22;1243;54.298;10.172;2022-09-25T15:22:58;14.90;99.90
2463;DHT22;1243;54.298;10.172;2022-09-25T15:25:44;14.90;99.90
2463;DHT22;1243;54.298;10.172;2022-09-25T15:28:14;15.00;99.90
2463;DHT22;1243;54.298;10.172;2022-09-25T15:30:41;14.90;99.90
2463;DHT22;1243;54.298;10.172;2022-09-25T15:33:21;15.00;99.90
2463;DHT22;1243;54.298;10.172;2022-09-25T15:35:55;15.00;99.90
2463;DHT22;1243;54.298;10.172;2022-09-25T15:38:31;15.00;99.90
2463;DHT22;1243;54.298;10.172;2022-09-25T15:40:57;15.00;99.90
2463;DHT22;1243;54.298;10.172;2022-09-25T15:43:24;14.90;99.90
2463;DHT22;1243;54.298;10.172;2022-09-25T15:48:40;14.90;99.90
2463;DHT22;1243;54.298;10.172;2022-09-25T15:51:18;14.80;99.90
2463;DHT22;1243;54.298;10.172;2022-09-25T15:53:54;14.80;99.90
2463;DHT22;1243;54.298;10.172;2022-09-25T15:56:35;14.80;99.90
2463;DHT22;1243;54.298;10.172;2022-09-25T15:59:13;14.90;99.90
2463;DHT22;1243;54.298;10.172;2022-09-25T16:01:41;14.90;99.90
2463;DHT22;1243;54.298;10.172;2022-09-25T16:04:26;14.90;99.90
2463;DHT22;1243;54.298;10.172;2022-09-25T16:07:23;14.80;99.90
2463;DHT22;1243;54.298;10.172;2022-09-25T16:10:25;14.80;98.70
2463;DHT22;1243;54.298;10.172;2022-09-25T16:18:18;14.70;99.90
2463;DHT22;1243;54.298;10.172;2022-09-25T16:20:53;14.80;99.90
2463;DHT22;1243;54.298;10.172;2022-09-25T16:23:27;14.80;99.90
2463;DHT22;1243;54.298;10.172;2022-09-25T16:25:55;14.70;99.90
2463;DHT22;1243;54.298;10.172;2022-09-25T16:28:26;14.70;97.90
2463;DHT22;1243;54.298;10.172;2022-09-25T16:31:00;14.70;96.90
2463;DHT22;1243;54.298;10.172;2022-09-25T16:33:39;14.70;94.40
2463;DHT22;1243;54.298;10.172;2022-09-25T16:36:08;14.60;93.80
2463;DHT22;1243;54.298;10.172;2022-09-25T16:38:40;14.60;93.70
2463;DHT22;1243;54.298;10.172;2022-09-25T16:41:20;14.50;93.70
2463;DHT22;1243;54.298;10.172;2022-09-25T16:44:01;14.40;93.70
2463;DHT22;1243;54.298;10.172;2022-09-25T16:46:27;14.40;93.70
2463;DHT22;1243;54.298;10.172;2022-09-25T16:48:59;14.30;93.70
2463;DHT22;1243;54.298;10.172;2022-09-25T16:51:26;14.30;94.20
2463;DHT22;1243;54.298;10.172;2022-09-25T16:53:56;14.30;93.10
2463;DHT22;1243;54.298;10.172;2022-09-25T16:56:24;14.20;90.20
2463;DHT22;1243;54.298;10.172;2022-09-25T16:58:54;14.20;91.80
2463;DHT22;1243;54.298;10.172;2022-09-25T17:01:22;14.10;87.90
2463;DHT22;1243;54.298;10.172;2022-09-25T17:03:49;14.10;88.10
2463;DHT22;1243;54.298;10.172;2022-09-25T17:06:19;14.10;84.00
2463;DHT22;1243;54.298;10.172;2022-09-25T17:08:45;14.10;75.90
2463;DHT22;1243;54.298;10.172;2022-09-25T17:11:11;14.00;79.10
2463;DHT22;1243;54.298;10.172;2022-09-25T17:13:37;14.00;90.50
2463;DHT22;1243;54.298;10.172;2022-09-25T17:16:05;13.90;69.80
2463;DHT22;1243;54.298;10.172;2022-09-25T17:18:30;13.90;62.30
2463;DHT22;1243;54.298;10.172;2022-09-25T17:20:58;13.90;48.40
2463;DHT22;1243;54.298;10.172;2022-09-25T17:23:24;13.80;31.10
2463;DHT22;1243;54.298;10.172;2022-09-25T17:26:05;13.70;31.20
2463;DHT22;1243;54.298;10.172;2022-09-25T17:28:36;13.70;28.90
2463;DHT22;1243;54.298;10.172;2022-09-25T17:31:02;13.70;36.00
2463;DHT22;1243;54.298;10.172;2022-09-25T17:33:29;13.60;60.70
2463;DHT22;1243;54.298;10.172;2022-09-25T17:36:02;13.50;47.20
2463;DHT22;1243;54.298;10.172;2022-09-25T17:38:29;13.50;32.60
2463;DHT22;1243;54.298;10.172;2022-09-25T17:40:57;13.40;37.90
2463;DHT22;1243;54.298;10.172;2022-09-25T17:43:24;13.40;42.80
2463;DHT22;1243;54.298;10.172;2022-09-25T17:48:18;13.30;48.80
2463;DHT22;1243;54.298;10.172;2022-09-25T17:50:55;13.30;52.10
2463;DHT22;1243;54.298;10.172;2022-09-25T17:53:24;13.30;50.40
2463;DHT22;1243;54.298;10.172;2022-09-25T17:55:50;13.20;59.00
2463;DHT22;1243;54.298;10.172;2022-09-25T17:58:16;13.00;44.60
2463;DHT22;1243;54.298;10.172;2022-09-25T18:00:43;12.90;51.50
2463;DHT22;1243;54.298;10.172;2022-09-25T18:03:12;12.90;46.70
2463;DHT22;1243;54.298;10.172;2022-09-25T18:05:39;12.80;58.80
2463;DHT22;1243;54.298;10.172;2022-09-25T18:08:05;12.80;59.20
2463;DHT22;1243;54.298;10.172;2022-09-25T18:10:31;12.60;42.60
2463;DHT22;1243;54.298;10.172;2022-09-25T18:12:58;12.60;48.40
2463;DHT22;1243;54.298;10.172;2022-09-25T18:15:25;12.60;40.90
2463;DHT22;1243;54.298;10.172;2022-09-25T18:17:51;12.50;42.60
2463;DHT22;1243;54.298;10.172;2022-09-25T18:20:17;12.50;53.40
2463;DHT22;1243;54.298;10.172;2022-09-25T18:23:01;12.50;42.90
2463;DHT22;1243;54.298;10.172;2022-09-25T18:25:27;12.40;35.50
2463;DHT22;1243;54.298;10.172;2022-09-25T18:27:53;12.30;35.80
2463;DHT22;1243;54.298;10.172;2022-09-25T18:30:21;12.30;40.00
2463;DHT22;1243;54.298;10.172;2022-09-25T18:32:49;12.20;43.30
2463;DHT22;1243;54.298;10.172;2022-09-25T18:35:15;12.20;46.20
2463;DHT22;1243;54.298;10.172;2022-09-25T18:37:42;12.10;56.50
2463;DHT22;1243;54.298;10.172;2022-09-25T18:40:10;12.10;44.60
2463;DHT22;1243;54.298;10.172;2022-09-25T18:42:36;12.00;48.50
2463;DHT22;1243;54.298;10.172;2022-09-25T18:45:02;11.90;40.90
2463;DHT22;1243;54.298;10.172;2022-09-25T18:47:28;12.00;37.90